createdAt,value
2023-12-19T00:00:30.070Z,11.30
2023-12-19T00:02:57.618Z,9.90
2023-12-19T00:05:24.850Z,10.90
2023-12-19T00:07:52.085Z,11.10
2023-12-19T00:10:18.992Z,11.60
2023-12-19T00:12:46.323Z,10.60
2023-12-19T00:15:13.482Z,10.00
2023-12-19T00:17:41.777Z,8.90
2023-12-19T00:20:09.419Z,9.70
2023-12-19T00:22:36.388Z,8.80
2023-12-19T00:25:03.677Z,10.10
2023-12-19T00:27:30.755Z,10.10
2023-12-19T00:29:57.802Z,10.20
2023-12-19T00:32:24.811Z,10.10
2023-12-19T00:34:51.883Z,9.30
2023-12-19T00:37:19.069Z,8.10
2023-12-19T00:39:46.062Z,7.80
2023-12-19T00:42:13.092Z,7.90
2023-12-19T00:44:39.977Z,7.10
2023-12-19T00:47:06.907Z,7.20
2023-12-19T00:49:33.981Z,7.80
2023-12-19T00:52:01.984Z,7.90
2023-12-19T00:54:29.229Z,9.10
2023-12-19T00:56:56.530Z,8.60
2023-12-19T00:59:23.497Z,8.40
2023-12-19T01:01:50.410Z,8.40
2023-12-19T01:04:19.289Z,9.90
2023-12-19T01:06:46.676Z,8.40
2023-12-19T01:09:14.442Z,7.70
2023-12-19T01:11:41.473Z,7.20
2023-12-19T01:14:08.512Z,7.80
2023-12-19T01:16:35.496Z,7.10
2023-12-19T01:19:03.580Z,9.20
2023-12-19T01:21:30.743Z,11.10
2023-12-19T01:23:57.676Z,13.60
2023-12-19T01:26:27.561Z,12.50
2023-12-19T01:28:57.394Z,10.60
2023-12-19T01:31:24.412Z,10.90
2023-12-19T01:33:55.580Z,10.00
2023-12-19T01:36:22.593Z,8.20
2023-12-19T01:38:49.502Z,7.90
2023-12-19T01:41:17.054Z,7.40
2023-12-19T01:43:44.032Z,6.20
2023-12-19T01:46:17.402Z,6.90
2023-12-19T01:48:44.666Z,6.50
2023-12-19T01:51:12.821Z,6.00
2023-12-19T01:53:40.820Z,4.70
2023-12-19T01:56:08.051Z,5.10
2023-12-19T01:58:35.666Z,5.10
2023-12-19T02:01:03.217Z,6.10
2023-12-19T02:03:30.452Z,6.50
2023-12-19T02:05:57.429Z,6.20
2023-12-19T02:08:24.360Z,5.50
2023-12-19T02:10:51.333Z,6.30
2023-12-19T02:13:18.359Z,6.60
2023-12-19T02:15:45.323Z,7.60
2023-12-19T02:18:15.803Z,10.80
2023-12-19T02:20:42.759Z,8.90
2023-12-19T02:23:13.581Z,7.70
2023-12-19T02:25:40.696Z,8.50
2023-12-19T02:28:08.298Z,8.10
2023-12-19T02:30:39.923Z,9.30
2023-12-19T02:33:08.973Z,8.20
2023-12-19T02:35:36.122Z,7.00
2023-12-19T02:38:03.549Z,7.20
2023-12-19T02:40:31.007Z,6.00
2023-12-19T02:42:57.882Z,5.70
2023-12-19T02:45:24.956Z,5.60
2023-12-19T02:47:52.993Z,5.90
2023-12-19T02:50:20.076Z,5.00
2023-12-19T02:52:46.993Z,5.00
2023-12-19T02:55:13.898Z,4.80
2023-12-19T02:57:40.957Z,4.90
2023-12-19T03:00:08.951Z,5.00
2023-12-19T03:02:36.109Z,5.50
2023-12-19T03:05:03.295Z,7.10
2023-12-19T03:07:30.562Z,8.10
2023-12-19T03:09:57.471Z,11.80
2023-12-19T03:12:24.667Z,12.20
2023-12-19T03:14:51.722Z,10.90
2023-12-19T03:17:19.360Z,10.70
2023-12-19T03:19:46.564Z,12.40
2023-12-19T03:22:13.791Z,15.80
2023-12-19T03:24:40.868Z,17.20
2023-12-19T03:27:08.022Z,16.70
2023-12-19T03:29:35.686Z,14.10
2023-12-19T03:32:02.593Z,13.50
2023-12-19T03:34:29.748Z,12.20
2023-12-19T03:36:58.053Z,9.90
2023-12-19T03:39:25.273Z,8.30
2023-12-19T03:42:10.593Z,7.10
2023-12-19T03:44:41.395Z,7.60
2023-12-19T03:47:08.309Z,6.90
2023-12-19T03:49:35.495Z,8.50
2023-12-19T03:52:02.633Z,9.10
2023-12-19T03:54:30.901Z,6.70
2023-12-19T03:56:57.832Z,6.30
2023-12-19T03:59:24.828Z,5.70
2023-12-19T04:01:53.204Z,5.70
2023-12-19T04:04:20.362Z,5.60
2023-12-19T04:06:47.667Z,6.00
2023-12-19T04:09:14.651Z,5.70
2023-12-19T04:11:48.206Z,6.30
2023-12-19T04:14:15.867Z,6.70
2023-12-19T04:16:42.828Z,8.90
2023-12-19T04:19:10.780Z,11.80
2023-12-19T04:21:38.368Z,11.00
2023-12-19T04:24:06.204Z,10.50
2023-12-19T04:26:33.192Z,11.60
2023-12-19T04:29:00.105Z,11.10
2023-12-19T04:31:27.140Z,12.20
2023-12-19T04:33:57.071Z,10.00
2023-12-19T04:36:26.144Z,10.50
2023-12-19T04:38:53.396Z,8.40
2023-12-19T04:41:20.359Z,7.30
2023-12-19T04:43:47.414Z,6.10
2023-12-19T04:46:14.303Z,6.50
2023-12-19T04:48:44.484Z,5.20
2023-12-19T04:51:20.842Z,5.00
2023-12-19T04:53:48.356Z,4.60
2023-12-19T04:56:15.516Z,4.40
2023-12-19T04:58:42.628Z,4.40
2023-12-19T05:01:09.666Z,4.80
2023-12-19T05:03:39.157Z,4.60
2023-12-19T05:06:07.518Z,4.60
2023-12-19T05:08:34.682Z,4.60
2023-12-19T05:11:01.654Z,4.70
2023-12-19T05:13:28.684Z,4.50
2023-12-19T05:15:55.644Z,4.80
2023-12-19T05:18:22.881Z,5.10
2023-12-19T05:20:49.944Z,5.30
2023-12-19T05:23:16.924Z,9.40
2023-12-19T05:25:43.911Z,13.10
2023-12-19T05:28:10.913Z,15.70
2023-12-19T05:30:38.030Z,12.60
2023-12-19T05:33:05.116Z,11.80
2023-12-19T05:35:32.118Z,9.10
2023-12-19T05:37:59.169Z,8.20
2023-12-19T05:40:26.040Z,8.90
2023-12-19T05:42:57.533Z,10.20
2023-12-19T05:45:24.963Z,9.50
2023-12-19T05:47:52.025Z,9.00
2023-12-19T05:50:19.056Z,9.80
2023-12-19T05:52:46.206Z,9.20
2023-12-19T05:55:13.416Z,9.80
2023-12-19T05:57:41.264Z,9.80
2023-12-19T06:00:10.729Z,11.40
2023-12-19T06:02:38.631Z,10.60
2023-12-19T06:05:09.049Z,10.70
2023-12-19T06:07:37.642Z,11.60
2023-12-19T06:10:10.231Z,11.60
2023-12-19T06:12:37.798Z,12.50
2023-12-19T06:15:09.517Z,16.00
2023-12-19T06:17:37.257Z,15.80
2023-12-19T06:20:04.876Z,16.60
2023-12-19T06:22:31.979Z,15.70
2023-12-19T06:24:59.786Z,15.80
2023-12-19T06:27:29.168Z,15.00
2023-12-19T06:29:59.135Z,14.50
2023-12-19T06:32:26.247Z,14.60
2023-12-19T06:34:53.207Z,13.80
2023-12-19T06:37:20.261Z,13.60
2023-12-19T06:39:47.249Z,13.80
2023-12-19T06:42:14.185Z,12.60
2023-12-19T06:44:41.388Z,14.70
2023-12-19T06:47:08.303Z,16.00
2023-12-19T06:49:35.280Z,18.00
2023-12-19T06:52:02.306Z,15.00
2023-12-19T06:54:29.813Z,13.50
2023-12-19T06:56:56.848Z,11.70
2023-12-19T06:59:23.881Z,11.00
2023-12-19T07:01:51.055Z,11.50
2023-12-19T07:04:18.317Z,12.30
2023-12-19T07:06:45.951Z,12.80
2023-12-19T07:09:15.862Z,13.00
2023-12-19T07:11:42.991Z,11.00
2023-12-19T07:14:10.079Z,11.20
2023-12-19T07:16:37.069Z,10.60
2023-12-19T07:19:05.465Z,13.00
2023-12-19T07:21:36.806Z,14.20
2023-12-19T07:24:04.393Z,15.60
2023-12-19T07:26:31.510Z,16.20
2023-12-19T07:28:59.242Z,16.90
2023-12-19T07:31:27.571Z,17.10
2023-12-19T07:34:01.138Z,19.40
2023-12-19T07:36:29.211Z,20.20
2023-12-19T07:38:56.129Z,19.80
2023-12-19T07:41:24.450Z,19.00
2023-12-19T07:43:51.536Z,19.10
2023-12-19T07:46:18.578Z,17.40
2023-12-19T07:48:45.774Z,15.80
2023-12-19T07:51:31.132Z,15.10
2023-12-19T07:53:58.600Z,17.10
2023-12-19T07:56:25.536Z,14.50
2023-12-19T07:58:53.042Z,14.50
2023-12-19T08:01:20.148Z,12.90
2023-12-19T08:03:47.520Z,13.00
2023-12-19T08:06:14.657Z,12.40
2023-12-19T08:08:41.939Z,12.50
2023-12-19T08:11:10.024Z,12.10
2023-12-19T08:13:37.062Z,12.60
2023-12-19T08:16:06.584Z,11.60
2023-12-19T08:18:34.007Z,11.70
2023-12-19T08:21:03.675Z,11.00
2023-12-19T08:23:30.885Z,10.50
2023-12-19T08:25:57.899Z,10.20
2023-12-19T08:28:24.944Z,10.90
2023-12-19T08:30:52.211Z,10.80
2023-12-19T08:33:21.060Z,11.90
2023-12-19T08:37:52.461Z,11.10
2023-12-19T08:40:20.825Z,8.80
2023-12-19T08:42:50.104Z,11.30
2023-12-19T08:45:18.644Z,9.10
2023-12-19T08:47:45.940Z,9.80
2023-12-19T08:50:14.539Z,9.50
2023-12-19T08:52:42.676Z,9.90
2023-12-19T08:55:11.508Z,10.20
2023-12-19T08:57:46.307Z,9.90
2023-12-19T09:00:22.667Z,10.10
2023-12-19T09:02:50.154Z,10.30
2023-12-19T09:05:24.300Z,10.90
2023-12-19T09:14:03.755Z,12.10
2023-12-19T09:16:31.438Z,11.80
2023-12-19T09:18:58.806Z,11.10
2023-12-19T09:21:27.687Z,10.50
2023-12-19T09:23:55.380Z,10.60
2023-12-19T09:26:22.346Z,10.50
2023-12-19T09:28:52.255Z,10.00
2023-12-19T09:31:20.483Z,10.10
2023-12-19T09:33:48.330Z,10.60
2023-12-19T09:36:27.803Z,9.40
2023-12-19T09:38:55.703Z,9.10
2023-12-19T09:41:24.215Z,10.00
2023-12-19T09:43:51.417Z,9.50
2023-12-19T09:46:18.565Z,10.10
2023-12-19T09:48:45.975Z,10.80
2023-12-19T09:51:20.864Z,10.50
2023-12-19T09:53:48.046Z,10.30
2023-12-19T09:56:15.256Z,9.60
2023-12-19T09:58:42.809Z,10.70
2023-12-19T10:01:10.038Z,11.00
2023-12-19T10:03:37.415Z,10.80
2023-12-19T10:06:07.628Z,11.00
2023-12-19T10:08:34.829Z,12.30
2023-12-19T10:11:02.100Z,11.40
2023-12-19T10:13:34.254Z,11.50
2023-12-19T10:16:30.180Z,10.50
2023-12-19T10:19:01.654Z,10.60
2023-12-19T10:21:31.169Z,11.20
2023-12-19T10:24:13.127Z,9.70
2023-12-19T10:26:40.699Z,10.60
2023-12-19T20:57:28.678Z,6.20
2023-12-19T20:59:56.551Z,6.30
2023-12-19T21:02:24.074Z,6.40
2023-12-19T21:04:51.333Z,6.70
2023-12-19T21:07:18.392Z,6.60
2023-12-19T21:09:45.836Z,6.80
2023-12-19T21:12:13.871Z,6.60
2023-12-19T21:14:41.156Z,7.10
2023-12-19T21:17:09.852Z,7.00
2023-12-19T21:19:37.814Z,7.30
2023-12-19T21:22:06.538Z,8.20
2023-12-19T21:24:34.150Z,8.60
2023-12-19T21:27:01.339Z,7.80
2023-12-19T21:29:29.451Z,8.20
2023-12-19T21:31:56.504Z,9.60
2023-12-19T21:34:23.666Z,8.60
2023-12-19T21:36:50.714Z,9.70
2023-12-19T21:39:18.188Z,8.50
2023-12-19T21:41:49.021Z,8.60
2023-12-19T21:44:16.135Z,9.40
2023-12-19T21:46:43.070Z,8.60
2023-12-19T21:49:10.197Z,9.50
2023-12-19T21:51:38.155Z,9.50
2023-12-19T21:54:05.872Z,9.90
2023-12-19T21:56:33.018Z,9.60
2023-12-19T21:59:00.106Z,8.90
2023-12-19T22:01:28.119Z,10.10
2023-12-19T22:03:55.370Z,10.60
2023-12-19T22:06:22.519Z,10.30
2023-12-19T22:08:50.644Z,9.40
2023-12-19T22:11:17.729Z,10.60
2023-12-19T22:13:44.884Z,10.70
2023-12-19T22:16:19.485Z,9.60
2023-12-19T22:18:47.368Z,9.90
2023-12-19T22:21:23.582Z,10.50
2023-12-19T22:23:51.659Z,9.90
2023-12-19T22:26:19.483Z,9.80
2023-12-19T22:28:46.674Z,10.90
2023-12-19T22:31:13.781Z,12.00
2023-12-19T22:33:40.893Z,10.20
2023-12-19T22:36:08.656Z,10.40
2023-12-19T22:38:36.628Z,10.20
2023-12-19T22:41:03.709Z,9.00
2023-12-19T22:43:30.837Z,10.20
2023-12-19T22:45:58.907Z,11.60
2023-12-19T22:48:25.980Z,10.00
2023-12-19T22:50:53.470Z,10.90
2023-12-19T22:53:20.504Z,9.80
2023-12-19T22:55:47.997Z,11.60
2023-12-19T22:58:15.962Z,10.90
2023-12-19T23:00:43.553Z,12.60
2023-12-19T23:03:12.243Z,10.90
2023-12-19T23:05:39.835Z,11.00
2023-12-19T23:08:07.421Z,10.60
2023-12-19T23:10:38.128Z,10.70
2023-12-19T23:13:06.342Z,10.30
2023-12-19T23:15:34.800Z,10.00
2023-12-19T23:18:02.856Z,10.20
2023-12-19T23:20:31.048Z,10.30
2023-12-19T23:22:58.150Z,11.60
2023-12-19T23:25:25.125Z,11.80
2023-12-19T23:27:54.144Z,10.80
2023-12-19T23:30:21.290Z,9.60
2023-12-19T23:32:48.290Z,11.00
2023-12-19T23:35:15.802Z,11.10
2023-12-19T23:37:43.580Z,11.10
2023-12-19T23:40:11.616Z,11.00
2023-12-19T23:42:38.949Z,11.30
2023-12-19T23:45:07.082Z,11.90
2023-12-19T23:47:34.846Z,12.20
2023-12-19T23:50:02.916Z,11.00
2023-12-19T23:52:30.566Z,11.80
2023-12-19T23:54:57.529Z,10.60
2023-12-19T23:57:24.537Z,11.30
2023-12-19T23:59:51.672Z,11.00
